sensor_id;sensor_type;location;lat;lon;timestamp;temperature;humidity
22360;DHT22;11347;52.030;4.690;2022-09-27T00:00:41;17.30;57.30
22360;DHT22;11347;52.030;4.690;2022-09-27T00:03:08;17.30;57.20
22360;DHT22;11347;52.030;4.690;2022-09-27T00:05:33;17.30;57.20
22360;DHT22;11347;52.030;4.690;2022-09-27T00:07:59;17.30;57.10
22360;DHT22;11347;52.030;4.690;2022-09-27T00:10:25;17.30;57.10
22360;DHT22;11347;52.030;4.690;2022-09-27T00:12:51;17.30;57.10
22360;DHT22;11347;52.030;4.690;2022-09-27T00:15:17;17.30;57.40
22360;DHT22;11347;52.030;4.690;2022-09-27T00:17:43;17.30;57.30
22360;DHT22;11347;52.030;4.690;2022-09-27T00:20:09;17.30;57.40
22360;DHT22;11347;52.030;4.690;2022-09-27T00:22:35;17.30;57.50
22360;DHT22;11347;52.030;4.690;2022-09-27T00:25:00;17.30;57.60
22360;DHT22;11347;52.030;4.690;2022-09-27T00:27:26;17.30;57.80
22360;DHT22;11347;52.030;4.690;2022-09-27T00:29:52;17.20;57.80
22360;DHT22;11347;52.030;4.690;2022-09-27T00:32:18;17.30;58.00
22360;DHT22;11347;52.030;4.690;2022-09-27T00:34:44;17.30;58.80
22360;DHT22;11347;52.030;4.690;2022-09-27T00:37:10;17.20;58.10
22360;DHT22;11347;52.030;4.690;2022-09-27T00:39:36;17.20;58.10
22360;DHT22;11347;52.030;4.690;2022-09-27T00:42:03;17.20;58.30
22360;DHT22;11347;52.030;4.690;2022-09-27T00:49:43;17.20;58.30
22360;DHT22;11347;52.030;4.690;2022-09-27T00:52:17;17.20;58.40
22360;DHT22;11347;52.030;4.690;2022-09-27T00:54:48;17.20;58.50
22360;DHT22;11347;52.030;4.690;2022-09-27T00:57:15;17.20;58.50
22360;DHT22;11347;52.030;4.690;2022-09-27T00:59:44;17.20;58.50
22360;DHT22;11347;52.030;4.690;2022-09-27T01:02:11;17.20;58.50
22360;DHT22;11347;52.030;4.690;2022-09-27T01:04:38;17.20;58.60
22360;DHT22;11347;52.030;4.690;2022-09-27T01:07:04;17.20;58.50
22360;DHT22;11347;52.030;4.690;2022-09-27T01:09:29;17.20;58.50
22360;DHT22;11347;52.030;4.690;2022-09-27T01:12:17;17.20;58.60
22360;DHT22;11347;52.030;4.690;2022-09-27T01:28:56;17.20;58.80
22360;DHT22;11347;52.030;4.690;2022-09-27T01:37:18;17.10;59.00
22360;DHT22;11347;52.030;4.690;2022-09-27T01:39:59;17.10;59.00
22360;DHT22;11347;52.030;4.690;2022-09-27T01:42:32;17.10;59.10
22360;DHT22;11347;52.030;4.690;2022-09-27T01:48:22;17.10;59.10
22360;DHT22;11347;52.030;4.690;2022-09-27T01:51:01;17.10;59.10
22360;DHT22;11347;52.030;4.690;2022-09-27T01:53:40;17.10;59.10
22360;DHT22;11347;52.030;4.690;2022-09-27T01:56:11;17.10;59.20
22360;DHT22;11347;52.030;4.690;2022-09-27T01:58:57;17.10;59.20
22360;DHT22;11347;52.030;4.690;2022-09-27T02:01:25;17.10;59.20
22360;DHT22;11347;52.030;4.690;2022-09-27T02:03:53;17.10;59.10
22360;DHT22;11347;52.030;4.690;2022-09-27T02:06:43;17.10;59.20
22360;DHT22;11347;52.030;4.690;2022-09-27T02:09:17;17.10;59.20
22360;DHT22;11347;52.030;4.690;2022-09-27T02:11:48;17.10;59.10
22360;DHT22;11347;52.030;4.690;2022-09-27T02:14:23;17.00;59.00
22360;DHT22;11347;52.030;4.690;2022-09-27T02:16:51;17.10;59.00
22360;DHT22;11347;52.030;4.690;2022-09-27T02:27:56;17.00;58.70
22360;DHT22;11347;52.030;4.690;2022-09-27T02:30:23;17.00;58.60
22360;DHT22;11347;52.030;4.690;2022-09-27T02:32:49;17.00;58.60
22360;DHT22;11347;52.030;4.690;2022-09-27T02:35:30;17.00;58.50
22360;DHT22;11347;52.030;4.690;2022-09-27T02:37:56;17.00;58.60
22360;DHT22;11347;52.030;4.690;2022-09-27T02:40:23;17.00;58.60
22360;DHT22;11347;52.030;4.690;2022-09-27T02:42:49;17.00;58.60
22360;DHT22;11347;52.030;4.690;2022-09-27T02:45:16;17.00;58.60
22360;DHT22;11347;52.030;4.690;2022-09-27T02:53:46;17.00;58.50
22360;DHT22;11347;52.030;4.690;2022-09-27T03:07:05;16.90;58.20
22360;DHT22;11347;52.030;4.690;2022-09-27T03:09:46;16.90;58.10
22360;DHT22;11347;52.030;4.690;2022-09-27T03:12:12;16.90;58.00
22360;DHT22;11347;52.030;4.690;2022-09-27T03:14:38;16.90;58.00
22360;DHT22;11347;52.030;4.690;2022-09-27T03:17:03;17.00;58.10
22360;DHT22;11347;52.030;4.690;2022-09-27T03:19:29;16.90;58.00
22360;DHT22;11347;52.030;4.690;2022-09-27T03:21:55;16.90;58.20
22360;DHT22;11347;52.030;4.690;2022-09-27T03:24:20;16.90;58.00
22360;DHT22;11347;52.030;4.690;2022-09-27T03:26:46;16.90;57.90
22360;DHT22;11347;52.030;4.690;2022-09-27T03:29:11;16.90;57.80
22360;DHT22;11347;52.030;4.690;2022-09-27T03:31:37;16.90;57.90
22360;DHT22;11347;52.030;4.690;2022-09-27T03:34:02;16.90;57.80
22360;DHT22;11347;52.030;4.690;2022-09-27T03:36:28;16.90;57.90
22360;DHT22;11347;52.030;4.690;2022-09-27T03:38:54;16.90;57.90
22360;DHT22;11347;52.030;4.690;2022-09-27T03:41:19;16.90;58.60
22360;DHT22;11347;52.030;4.690;2022-09-27T03:43:45;16.90;58.00
22360;DHT22;11347;52.030;4.690;2022-09-27T03:46:10;16.90;58.10
22360;DHT22;11347;52.030;4.690;2022-09-27T03:48:36;16.90;58.10
22360;DHT22;11347;52.030;4.690;2022-09-27T03:51:01;16.90;58.10
22360;DHT22;11347;52.030;4.690;2022-09-27T03:53:29;16.90;58.10
22360;DHT22;11347;52.030;4.690;2022-09-27T03:55:54;16.80;58.00
22360;DHT22;11347;52.030;4.690;2022-09-27T03:58:20;16.80;58.10
22360;DHT22;11347;52.030;4.690;2022-09-27T04:00:46;16.80;58.20
22360;DHT22;11347;52.030;4.690;2022-09-27T04:03:12;16.80;58.40
22360;DHT22;11347;52.030;4.690;2022-09-27T04:05:38;16.80;58.40
22360;DHT22;11347;52.030;4.690;2022-09-27T04:08:03;16.80;58.40
22360;DHT22;11347;52.030;4.690;2022-09-27T04:10:30;16.90;58.40
22360;DHT22;11347;52.030;4.690;2022-09-27T04:12:56;16.80;58.20
22360;DHT22;11347;52.030;4.690;2022-09-27T04:15:22;16.90;58.40
22360;DHT22;11347;52.030;4.690;2022-09-27T04:17:48;16.90;58.30
22360;DHT22;11347;52.030;4.690;2022-09-27T04:20:13;16.90;58.30
22360;DHT22;11347;52.030;4.690;2022-09-27T04:22:40;16.80;58.20
22360;DHT22;11347;52.030;4.690;2022-09-27T04:25:07;16.90;58.40
22360;DHT22;11347;52.030;4.690;2022-09-27T04:27:34;16.90;58.40
22360;DHT22;11347;52.030;4.690;2022-09-27T04:29:59;16.90;58.10
22360;DHT22;11347;52.030;4.690;2022-09-27T04:32:25;16.90;58.20
22360;DHT22;11347;52.030;4.690;2022-09-27T04:34:50;16.90;57.80
22360;DHT22;11347;52.030;4.690;2022-09-27T04:37:35;16.80;57.90
22360;DHT22;11347;52.030;4.690;2022-09-27T04:40:01;16.80;57.90
22360;DHT22;11347;52.030;4.690;2022-09-27T04:42:27;16.80;57.90
22360;DHT22;11347;52.030;4.690;2022-09-27T04:44:52;16.80;57.90
22360;DHT22;11347;52.030;4.690;2022-09-27T04:47:18;16.80;58.10
22360;DHT22;11347;52.030;4.690;2022-09-27T04:49:46;16.80;57.90
22360;DHT22;11347;52.030;4.690;2022-09-27T04:52:11;16.80;57.90
22360;DHT22;11347;52.030;4.690;2022-09-27T04:54:38;16.80;58.00
22360;DHT22;11347;52.030;4.690;2022-09-27T04:57:04;16.80;58.00
22360;DHT22;11347;52.030;4.690;2022-09-27T04:59:30;16.80;57.90
22360;DHT22;11347;52.030;4.690;2022-09-27T05:01:56;16.80;58.00
22360;DHT22;11347;52.030;4.690;2022-09-27T05:04:24;16.80;58.10
22360;DHT22;11347;52.030;4.690;2022-09-27T05:06:50;16.80;58.00
22360;DHT22;11347;52.030;4.690;2022-09-27T05:09:15;16.80;58.10
22360;DHT22;11347;52.030;4.690;2022-09-27T05:11:41;16.80;58.00
22360;DHT22;11347;52.030;4.690;2022-09-27T05:14:06;16.80;58.00
22360;DHT22;11347;52.030;4.690;2022-09-27T05:16:33;16.80;57.90
22360;DHT22;11347;52.030;4.690;2022-09-27T05:19:01;16.80;58.20
22360;DHT22;11347;52.030;4.690;2022-09-27T05:21:26;16.80;58.20
22360;DHT22;11347;52.030;4.690;2022-09-27T05:23:52;16.80;58.10
22360;DHT22;11347;52.030;4.690;2022-09-27T05:26:18;16.80;58.10
22360;DHT22;11347;52.030;4.690;2022-09-27T05:28:44;16.80;58.10
22360;DHT22;11347;52.030;4.690;2022-09-27T05:31:12;16.80;57.90
22360;DHT22;11347;52.030;4.690;2022-09-27T05:33:39;16.80;58.00
22360;DHT22;11347;52.030;4.690;2022-09-27T05:36:05;16.80;58.10
22360;DHT22;11347;52.030;4.690;2022-09-27T05:38:31;16.80;58.10
22360;DHT22;11347;52.030;4.690;2022-09-27T05:40:57;16.80;58.00
22360;DHT22;11347;52.030;4.690;2022-09-27T05:43:22;16.80;58.10
22360;DHT22;11347;52.030;4.690;2022-09-27T05:45:49;16.80;58.00
22360;DHT22;11347;52.030;4.690;2022-09-27T05:48:15;16.80;57.90
22360;DHT22;11347;52.030;4.690;2022-09-27T05:50:41;16.80;57.80
22360;DHT22;11347;52.030;4.690;2022-09-27T05:53:08;16.80;57.90
22360;DHT22;11347;52.030;4.690;2022-09-27T05:55:34;16.80;58.20
22360;DHT22;11347;52.030;4.690;2022-09-27T05:58:04;16.80;58.50
22360;DHT22;11347;52.030;4.690;2022-09-27T06:00:31;16.80;58.20
22360;DHT22;11347;52.030;4.690;2022-09-27T06:02:58;16.80;58.10
22360;DHT22;11347;52.030;4.690;2022-09-27T06:05:26;16.80;58.00
22360;DHT22;11347;52.030;4.690;2022-09-27T06:08:00;16.80;57.90
22360;DHT22;11347;52.030;4.690;2022-09-27T06:10:27;16.80;58.10
22360;DHT22;11347;52.030;4.690;2022-09-27T06:12:53;16.90;57.90
22360;DHT22;11347;52.030;4.690;2022-09-27T06:15:18;16.80;57.70
22360;DHT22;11347;52.030;4.690;2022-09-27T06:17:44;16.80;57.70
22360;DHT22;11347;52.030;4.690;2022-09-27T06:20:09;16.80;57.70
22360;DHT22;11347;52.030;4.690;2022-09-27T06:22:36;16.80;57.80
22360;DHT22;11347;52.030;4.690;2022-09-27T06:25:02;16.80;57.80
22360;DHT22;11347;52.030;4.690;2022-09-27T06:27:30;16.80;58.00
22360;DHT22;11347;52.030;4.690;2022-09-27T06:29:55;16.80;58.10
22360;DHT22;11347;52.030;4.690;2022-09-27T06:32:21;16.80;58.10
22360;DHT22;11347;52.030;4.690;2022-09-27T06:34:46;16.80;58.20
22360;DHT22;11347;52.030;4.690;2022-09-27T06:37:12;16.90;58.30
22360;DHT22;11347;52.030;4.690;2022-09-27T06:39:38;16.90;58.20
22360;DHT22;11347;52.030;4.690;2022-09-27T06:42:04;16.90;58.30
22360;DHT22;11347;52.030;4.690;2022-09-27T06:44:30;16.90;58.30
22360;DHT22;11347;52.030;4.690;2022-09-27T06:46:55;16.90;58.50
22360;DHT22;11347;52.030;4.690;2022-09-27T06:49:21;16.90;58.40
22360;DHT22;11347;52.030;4.690;2022-09-27T06:51:47;16.90;58.30
22360;DHT22;11347;52.030;4.690;2022-09-27T06:54:13;16.90;58.30
22360;DHT22;11347;52.030;4.690;2022-09-27T06:56:38;16.90;58.40
22360;DHT22;11347;52.030;4.690;2022-09-27T06:59:04;16.90;58.40
22360;DHT22;11347;52.030;4.690;2022-09-27T07:01:48;16.90;58.40
22360;DHT22;11347;52.030;4.690;2022-09-27T07:04:16;16.90;58.40
22360;DHT22;11347;52.030;4.690;2022-09-27T07:06:43;16.90;58.50
22360;DHT22;11347;52.030;4.690;2022-09-27T07:09:09;16.90;58.40
22360;DHT22;11347;52.030;4.690;2022-09-27T07:11:34;16.90;58.70
22360;DHT22;11347;52.030;4.690;2022-09-27T07:14:01;16.90;58.60
22360;DHT22;11347;52.030;4.690;2022-09-27T07:16:29;16.90;58.60
22360;DHT22;11347;52.030;4.690;2022-09-27T07:18:56;16.90;58.50
22360;DHT22;11347;52.030;4.690;2022-09-27T07:21:22;16.90;58.70
22360;DHT22;11347;52.030;4.690;2022-09-27T07:23:48;16.90;59.00
22360;DHT22;11347;52.030;4.690;2022-09-27T07:26:14;16.90;58.70
22360;DHT22;11347;52.030;4.690;2022-09-27T07:28:40;16.90;58.20
22360;DHT22;11347;52.030;4.690;2022-09-27T07:31:06;16.90;57.70
22360;DHT22;11347;52.030;4.690;2022-09-27T07:33:34;16.90;57.20
22360;DHT22;11347;52.030;4.690;2022-09-27T07:36:00;16.90;57.00
22360;DHT22;11347;52.030;4.690;2022-09-27T07:38:25;16.90;56.70
22360;DHT22;11347;52.030;4.690;2022-09-27T07:40:51;16.90;56.30
22360;DHT22;11347;52.030;4.690;2022-09-27T07:43:17;16.90;56.30
22360;DHT22;11347;52.030;4.690;2022-09-27T07:45:44;16.90;56.00
22360;DHT22;11347;52.030;4.690;2022-09-27T07:48:13;16.90;55.70
22360;DHT22;11347;52.030;4.690;2022-09-27T07:50:39;16.90;55.70
22360;DHT22;11347;52.030;4.690;2022-09-27T07:53:04;16.90;55.70
22360;DHT22;11347;52.030;4.690;2022-09-27T07:55:30;16.90;55.70
22360;DHT22;11347;52.030;4.690;2022-09-27T07:58:04;16.80;55.60
22360;DHT22;11347;52.030;4.690;2022-09-27T08:00:30;16.80;55.60
22360;DHT22;11347;52.030;4.690;2022-09-27T08:02:55;16.90;55.70
22360;DHT22;11347;52.030;4.690;2022-09-27T08:05:21;16.80;55.60
22360;DHT22;11347;52.030;4.690;2022-09-27T08:07:46;16.80;55.60
22360;DHT22;11347;52.030;4.690;2022-09-27T08:10:12;16.80;55.60
22360;DHT22;11347;52.030;4.690;2022-09-27T08:12:37;16.80;55.60
22360;DHT22;11347;52.030;4.690;2022-09-27T08:15:04;16.80;55.60
22360;DHT22;11347;52.030;4.690;2022-09-27T08:17:31;16.80;55.60
22360;DHT22;11347;52.030;4.690;2022-09-27T08:19:56;16.80;55.60
22360;DHT22;11347;52.030;4.690;2022-09-27T08:22:22;16.80;55.60
22360;DHT22;11347;52.030;4.690;2022-09-27T08:24:48;16.80;55.60
22360;DHT22;11347;52.030;4.690;2022-09-27T08:27:15;16.80;55.60
22360;DHT22;11347;52.030;4.690;2022-09-27T08:29:40;16.80;55.60
22360;DHT22;11347;52.030;4.690;2022-09-27T08:32:07;16.80;55.60
22360;DHT22;11347;52.030;4.690;2022-09-27T08:34:33;16.80;56.30
22360;DHT22;11347;52.030;4.690;2022-09-27T08:36:59;16.80;55.60
22360;DHT22;11347;52.030;4.690;2022-09-27T08:39:24;16.80;55.60
22360;DHT22;11347;52.030;4.690;2022-09-27T08:47:16;16.80;55.70
22360;DHT22;11347;52.030;4.690;2022-09-27T08:49:53;16.80;55.60
22360;DHT22;11347;52.030;4.690;2022-09-27T08:52:26;16.80;55.60
22360;DHT22;11347;52.030;4.690;2022-09-27T08:54:55;16.80;55.60
22360;DHT22;11347;52.030;4.690;2022-09-27T08:57:23;16.80;55.60
22360;DHT22;11347;52.030;4.690;2022-09-27T08:59:54;16.80;55.60
22360;DHT22;11347;52.030;4.690;2022-09-27T09:02:23;16.80;55.60
22360;DHT22;11347;52.030;4.690;2022-09-27T09:04:54;16.80;55.60
22360;DHT22;11347;52.030;4.690;2022-09-27T09:13:26;16.80;55.60
22360;DHT22;11347;52.030;4.690;2022-09-27T09:16:12;16.80;55.60
22360;DHT22;11347;52.030;4.690;2022-09-27T09:22:01;16.80;55.60
22360;DHT22;11347;52.030;4.690;2022-09-27T09:24:38;16.80;55.60
22360;DHT22;11347;52.030;4.690;2022-09-27T09:30:10;16.80;55.60
22360;DHT22;11347;52.030;4.690;2022-09-27T09:35:20;16.90;55.70
22360;DHT22;11347;52.030;4.690;2022-09-27T09:37:51;16.90;55.70
22360;DHT22;11347;52.030;4.690;2022-09-27T09:40:25;16.90;55.70
22360;DHT22;11347;52.030;4.690;2022-09-27T09:43:09;16.90;55.70
22360;DHT22;11347;52.030;4.690;2022-09-27T09:45:49;16.90;55.70
22360;DHT22;11347;52.030;4.690;2022-09-27T09:48:51;16.90;55.70
22360;DHT22;11347;52.030;4.690;2022-09-27T09:51:26;16.90;55.70
22360;DHT22;11347;52.030;4.690;2022-09-27T09:54:03;16.90;55.70
22360;DHT22;11347;52.030;4.690;2022-09-27T09:56:41;16.90;55.70
22360;DHT22;11347;52.030;4.690;2022-09-27T09:59:25;16.90;55.70
22360;DHT22;11347;52.030;4.690;2022-09-27T10:01:53;16.90;55.70
22360;DHT22;11347;52.030;4.690;2022-09-27T10:04:25;16.90;55.70
22360;DHT22;11347;52.030;4.690;2022-09-27T10:06:52;16.90;55.70
22360;DHT22;11347;52.030;4.690;2022-09-27T10:09:24;16.90;55.70
22360;DHT22;11347;52.030;4.690;2022-09-27T10:11:51;16.90;55.70
22360;DHT22;11347;52.030;4.690;2022-09-27T10:14:18;16.90;55.70
22360;DHT22;11347;52.030;4.690;2022-09-27T10:16:54;16.90;55.70
22360;DHT22;11347;52.030;4.690;2022-09-27T10:19:28;16.90;55.70
22360;DHT22;11347;52.030;4.690;2022-09-27T10:21:58;16.90;55.70
22360;DHT22;11347;52.030;4.690;2022-09-27T10:24:25;16.90;55.70
22360;DHT22;11347;52.030;4.690;2022-09-27T10:26:57;16.90;55.70
22360;DHT22;11347;52.030;4.690;2022-09-27T10:29:30;16.90;55.70
22360;DHT22;11347;52.030;4.690;2022-09-27T10:31:58;16.90;55.70
22360;DHT22;11347;52.030;4.690;2022-09-27T10:34:37;16.90;55.70
22360;DHT22;11347;52.030;4.690;2022-09-27T10:39:37;16.80;55.60
22360;DHT22;11347;52.030;4.690;2022-09-27T10:42:19;16.80;55.60
22360;DHT22;11347;52.030;4.690;2022-09-27T10:44:45;16.80;55.60
22360;DHT22;11347;52.030;4.690;2022-09-27T10:47:15;16.80;55.60
22360;DHT22;11347;52.030;4.690;2022-09-27T10:49:44;16.80;55.60
22360;DHT22;11347;52.030;4.690;2022-09-27T10:52:21;16.80;56.30
22360;DHT22;11347;52.030;4.690;2022-09-27T10:54:55;16.80;55.60
22360;DHT22;11347;52.030;4.690;2022-09-27T10:57:31;16.80;55.60
22360;DHT22;11347;52.030;4.690;2022-09-27T11:00:19;16.80;55.60
22360;DHT22;11347;52.030;4.690;2022-09-27T11:02:53;16.80;55.60
22360;DHT22;11347;52.030;4.690;2022-09-27T11:07:53;16.80;55.60
22360;DHT22;11347;52.030;4.690;2022-09-27T11:10:33;16.80;55.60
22360;DHT22;11347;52.030;4.690;2022-09-27T11:18:44;16.80;55.60
22360;DHT22;11347;52.030;4.690;2022-09-27T11:32:26;16.80;55.60
22360;DHT22;11347;52.030;4.690;2022-09-27T11:35:18;16.80;55.60
22360;DHT22;11347;52.030;4.690;2022-09-27T11:38:08;16.80;55.60
22360;DHT22;11347;52.030;4.690;2022-09-27T11:44:03;16.90;55.70
22360;DHT22;11347;52.030;4.690;2022-09-27T11:46:34;16.90;55.70
22360;DHT22;11347;52.030;4.690;2022-09-27T11:52:30;16.90;55.70
22360;DHT22;11347;52.030;4.690;2022-09-27T11:55:39;16.90;55.70
22360;DHT22;11347;52.030;4.690;2022-09-27T11:58:39;17.00;55.80
22360;DHT22;11347;52.030;4.690;2022-09-27T12:01:11;17.00;55.80
22360;DHT22;11347;52.030;4.690;2022-09-27T12:07:19;17.00;55.80
22360;DHT22;11347;52.030;4.690;2022-09-27T12:09:51;17.00;55.80
22360;DHT22;11347;52.030;4.690;2022-09-27T12:12:18;17.10;56.00
22360;DHT22;11347;52.030;4.690;2022-09-27T12:14:49;17.10;55.90
22360;DHT22;11347;52.030;4.690;2022-09-27T12:17:26;17.10;55.90
22360;DHT22;11347;52.030;4.690;2022-09-27T12:19:57;17.20;55.80
22360;DHT22;11347;52.030;4.690;2022-09-27T12:22:29;17.20;55.50
22360;DHT22;11347;52.030;4.690;2022-09-27T12:24:57;17.20;55.40
22360;DHT22;11347;52.030;4.690;2022-09-27T12:27:36;17.20;55.20
22360;DHT22;11347;52.030;4.690;2022-09-27T12:30:03;17.30;55.20
22360;DHT22;11347;52.030;4.690;2022-09-27T12:35:28;17.30;54.90
22360;DHT22;11347;52.030;4.690;2022-09-27T12:38:14;17.40;54.90
22360;DHT22;11347;52.030;4.690;2022-09-27T12:40:45;17.40;54.80
22360;DHT22;11347;52.030;4.690;2022-09-27T12:43:23;17.40;54.70
22360;DHT22;11347;52.030;4.690;2022-09-27T12:46:10;17.50;54.80
22360;DHT22;11347;52.030;4.690;2022-09-27T12:51:17;17.50;54.70
22360;DHT22;11347;52.030;4.690;2022-09-27T12:59:44;17.60;54.70
22360;DHT22;11347;52.030;4.690;2022-09-27T13:11:18;17.60;54.40
22360;DHT22;11347;52.030;4.690;2022-09-27T13:13:48;17.60;54.40
22360;DHT22;11347;52.030;4.690;2022-09-27T13:16:14;17.60;54.30
22360;DHT22;11347;52.030;4.690;2022-09-27T13:18:52;17.60;54.10
22360;DHT22;11347;52.030;4.690;2022-09-27T13:32:36;17.70;53.90
22360;DHT22;11347;52.030;4.690;2022-09-27T13:35:18;17.70;54.20
22360;DHT22;11347;52.030;4.690;2022-09-27T13:37:53;17.70;53.90
22360;DHT22;11347;52.030;4.690;2022-09-27T13:48:08;17.70;53.50
22360;DHT22;11347;52.030;4.690;2022-09-27T13:50:49;17.70;53.60
22360;DHT22;11347;52.030;4.690;2022-09-27T13:55:56;17.70;53.40
22360;DHT22;11347;52.030;4.690;2022-09-27T13:58:54;17.70;53.00
22360;DHT22;11347;52.030;4.690;2022-09-27T14:01:29;17.70;52.90
22360;DHT22;11347;52.030;4.690;2022-09-27T14:04:04;17.80;53.00
22360;DHT22;11347;52.030;4.690;2022-09-27T14:06:42;17.80;52.90
22360;DHT22;11347;52.030;4.690;2022-09-27T14:09:19;17.80;52.80
22360;DHT22;11347;52.030;4.690;2022-09-27T14:11:51;17.80;52.70
22360;DHT22;11347;52.030;4.690;2022-09-27T14:14:22;17.80;52.60
22360;DHT22;11347;52.030;4.690;2022-09-27T14:16:48;17.80;52.60
22360;DHT22;11347;52.030;4.690;2022-09-27T14:19:17;17.80;52.50
22360;DHT22;11347;52.030;4.690;2022-09-27T14:21:44;17.80;52.50
22360;DHT22;11347;52.030;4.690;2022-09-27T14:24:28;17.80;52.30
22360;DHT22;11347;52.030;4.690;2022-09-27T14:27:15;17.90;52.30
22360;DHT22;11347;52.030;4.690;2022-09-27T14:29:55;17.90;52.10
22360;DHT22;11347;52.030;4.690;2022-09-27T14:32:29;17.90;52.00
22360;DHT22;11347;52.030;4.690;2022-09-27T14:35:18;17.90;51.90
22360;DHT22;11347;52.030;4.690;2022-09-27T14:38:05;17.90;52.00
22360;DHT22;11347;52.030;4.690;2022-09-27T14:40:38;17.90;52.40
22360;DHT22;11347;52.030;4.690;2022-09-27T14:43:04;17.90;51.70
22360;DHT22;11347;52.030;4.690;2022-09-27T14:45:36;17.90;51.70
22360;DHT22;11347;52.030;4.690;2022-09-27T14:48:22;17.90;51.70
22360;DHT22;11347;52.030;4.690;2022-09-27T14:50:58;17.90;51.50
22360;DHT22;11347;52.030;4.690;2022-09-27T14:53:28;17.90;51.40
22360;DHT22;11347;52.030;4.690;2022-09-27T14:55:55;17.90;51.40
22360;DHT22;11347;52.030;4.690;2022-09-27T14:58:22;17.90;51.40
22360;DHT22;11347;52.030;4.690;2022-09-27T15:00:48;17.80;51.30
22360;DHT22;11347;52.030;4.690;2022-09-27T15:03:27;17.80;51.30
22360;DHT22;11347;52.030;4.690;2022-09-27T15:05:54;17.80;51.20
22360;DHT22;11347;52.030;4.690;2022-09-27T15:08:22;17.80;51.20
22360;DHT22;11347;52.030;4.690;2022-09-27T15:10:50;17.80;51.20
22360;DHT22;11347;52.030;4.690;2022-09-27T15:13:17;17.80;51.10
22360;DHT22;11347;52.030;4.690;2022-09-27T15:15:44;17.80;51.10
22360;DHT22;11347;52.030;4.690;2022-09-27T15:20:58;17.80;50.90
22360;DHT22;11347;52.030;4.690;2022-09-27T15:23:26;17.80;50.90
22360;DHT22;11347;52.030;4.690;2022-09-27T15:28:57;17.70;51.20
22360;DHT22;11347;52.030;4.690;2022-09-27T15:31:31;17.70;51.20
22360;DHT22;11347;52.030;4.690;2022-09-27T15:33:57;17.70;51.20
22360;DHT22;11347;52.030;4.690;2022-09-27T15:39:20;17.70;51.20
22360;DHT22;11347;52.030;4.690;2022-09-27T15:44:50;17.70;51.20
22360;DHT22;11347;52.030;4.690;2022-09-27T15:50:30;17.70;51.50
22360;DHT22;11347;52.030;4.690;2022-09-27T15:52:49;17.70;51.70
22360;DHT22;11347;52.030;4.690;2022-09-27T15:55:23;17.70;51.60
22360;DHT22;11347;52.030;4.690;2022-09-27T16:00:22;17.60;51.70
22360;DHT22;11347;52.030;4.690;2022-09-27T16:02:48;17.60;51.70
22360;DHT22;11347;52.030;4.690;2022-09-27T16:05:13;17.60;51.70
22360;DHT22;11347;52.030;4.690;2022-09-27T16:07:39;17.60;51.70
22360;DHT22;11347;52.030;4.690;2022-09-27T16:10:26;17.60;52.10
22360;DHT22;11347;52.030;4.690;2022-09-27T16:12:52;17.60;51.90
22360;DHT22;11347;52.030;4.690;2022-09-27T16:15:18;17.60;52.00
22360;DHT22;11347;52.030;4.690;2022-09-27T16:17:44;17.60;52.10
22360;DHT22;11347;52.030;4.690;2022-09-27T16:20:17;17.60;52.10
22360;DHT22;11347;52.030;4.690;2022-09-27T16:22:44;17.60;52.30
22360;DHT22;11347;52.030;4.690;2022-09-27T16:25:10;17.50;52.30
22360;DHT22;11347;52.030;4.690;2022-09-27T16:27:36;17.60;52.50
22360;DHT22;11347;52.030;4.690;2022-09-27T16:30:02;17.50;52.50
22360;DHT22;11347;52.030;4.690;2022-09-27T16:32:27;17.50;52.50
22360;DHT22;11347;52.030;4.690;2022-09-27T16:34:54;17.50;52.60
22360;DHT22;11347;52.030;4.690;2022-09-27T16:37:21;17.50;52.60
22360;DHT22;11347;52.030;4.690;2022-09-27T16:39:47;17.50;52.60
22360;DHT22;11347;52.030;4.690;2022-09-27T16:42:12;17.50;52.60
22360;DHT22;11347;52.030;4.690;2022-09-27T16:44:38;17.50;52.70
22360;DHT22;11347;52.030;4.690;2022-09-27T16:47:04;17.50;52.90
22360;DHT22;11347;52.030;4.690;2022-09-27T16:49:32;17.50;52.80
22360;DHT22;11347;52.030;4.690;2022-09-27T16:52:16;17.50;52.80
22360;DHT22;11347;52.030;4.690;2022-09-27T16:54:41;17.50;53.00
22360;DHT22;11347;52.030;4.690;2022-09-27T16:57:07;17.50;53.00
22360;DHT22;11347;52.030;4.690;2022-09-27T16:59:33;17.50;53.10
22360;DHT22;11347;52.030;4.690;2022-09-27T17:01:58;17.50;53.10
22360;DHT22;11347;52.030;4.690;2022-09-27T17:04:25;17.50;53.20
22360;DHT22;11347;52.030;4.690;2022-09-27T17:06:52;17.40;53.20
22360;DHT22;11347;52.030;4.690;2022-09-27T17:09:18;17.40;53.20
22360;DHT22;11347;52.030;4.690;2022-09-27T17:11:44;17.40;53.30
22360;DHT22;11347;52.030;4.690;2022-09-27T17:14:13;17.40;53.30
22360;DHT22;11347;52.030;4.690;2022-09-27T17:16:45;17.40;53.40
22360;DHT22;11347;52.030;4.690;2022-09-27T17:19:12;17.40;53.40
22360;DHT22;11347;52.030;4.690;2022-09-27T17:21:38;17.40;53.50
22360;DHT22;11347;52.030;4.690;2022-09-27T17:24:04;17.40;53.50
22360;DHT22;11347;52.030;4.690;2022-09-27T17:26:30;17.40;53.60
22360;DHT22;11347;52.030;4.690;2022-09-27T17:28:57;17.40;54.00
22360;DHT22;11347;52.030;4.690;2022-09-27T17:31:23;17.30;53.50
22360;DHT22;11347;52.030;4.690;2022-09-27T17:33:50;17.40;53.60
22360;DHT22;11347;52.030;4.690;2022-09-27T17:36:18;17.40;53.60
22360;DHT22;11347;52.030;4.690;2022-09-27T17:38:45;17.40;53.60
22360;DHT22;11347;52.030;4.690;2022-09-27T17:41:13;17.40;53.60
22360;DHT22;11347;52.030;4.690;2022-09-27T17:43:40;17.40;53.60
22360;DHT22;11347;52.030;4.690;2022-09-27T17:46:15;17.30;53.60
22360;DHT22;11347;52.030;4.690;2022-09-27T17:48:40;17.30;53.60
22360;DHT22;11347;52.030;4.690;2022-09-27T17:51:25;17.30;53.70
22360;DHT22;11347;52.030;4.690;2022-09-27T17:53:51;17.30;53.70
22360;DHT22;11347;52.030;4.690;2022-09-27T17:56:16;17.30;53.70
22360;DHT22;11347;52.030;4.690;2022-09-27T17:58:49;17.30;53.90
22360;DHT22;11347;52.030;4.690;2022-09-27T18:01:16;17.30;53.90
22360;DHT22;11347;52.030;4.690;2022-09-27T18:03:43;17.20;53.80
22360;DHT22;11347;52.030;4.690;2022-09-27T18:06:10;17.20;53.90
22360;DHT22;11347;52.030;4.690;2022-09-27T18:08:37;17.20;54.00
22360;DHT22;11347;52.030;4.690;2022-09-27T18:11:11;17.20;54.00
22360;DHT22;11347;52.030;4.690;2022-09-27T18:13:37;17.20;54.00
22360;DHT22;11347;52.030;4.690;2022-09-27T18:16:14;17.20;54.00
22360;DHT22;11347;52.030;4.690;2022-09-27T18:18:42;17.20;54.10
22360;DHT22;11347;52.030;4.690;2022-09-27T18:21:14;17.10;54.10
22360;DHT22;11347;52.030;4.690;2022-09-27T18:23:41;17.20;54.20
22360;DHT22;11347;52.030;4.690;2022-09-27T18:26:08;17.20;54.30
22360;DHT22;11347;52.030;4.690;2022-09-27T18:28:35;17.10;54.30
22360;DHT22;11347;52.030;4.690;2022-09-27T18:31:07;17.10;54.40